EZY9PL EGAC-EGCC
Flight info
| Callsign | EZY9PL |
|---|---|
| Flight time | 0h 35m |
| Altitude | 23000 |
| Route | DCT DUFFY L15 PEPOD Q38 MAKUX MAKUX1M |
| Aircraft | A20N/M-V/N |
Departure
| Time | 2026-04-15 20:50 |
|---|---|
| Airport | George Best Belfast City Airport (EGAC) |
Arrival
| Time | 2026-04-15 21:26 |
|---|---|
| Airport | Manchester Airport (EGCC) |
| Time | Latitude | Longitude | Altitude | Speed | Heading |
|---|---|---|---|---|---|
| 2026-04-15 20:33 | 54.61508 | -5.87149 | 20 ft | 0 kts | 154° |
| 2026-04-15 20:42 | 54.61519 | -5.87159 | 22 ft | 3 kts | 153° |
| 2026-04-15 20:42 | 54.61536 | -5.87173 | 23 ft | 3 kts | 153° |
| 2026-04-15 20:42 | 54.61547 | -5.87194 | 24 ft | 2 kts | 83° |
| 2026-04-15 20:43 | 54.61542 | -5.87212 | 25 ft | 2 kts | 33° |
| 2026-04-15 20:43 | 54.61525 | -5.87231 | 25 ft | 3 kts | 33° |
| 2026-04-15 20:43 | 54.61517 | -5.87240 | 23 ft | 0 kts | 33° |
| 2026-04-15 20:46 | 54.61536 | -5.87219 | 25 ft | 7 kts | 33° |
| 2026-04-15 20:46 | 54.61596 | -5.87150 | 20 ft | 14 kts | 34° |
| 2026-04-15 20:46 | 54.61694 | -5.87031 | 20 ft | 20 kts | 35° |
| 2026-04-15 20:47 | 54.61770 | -5.87023 | 22 ft | 9 kts | 307° |
| 2026-04-15 20:47 | 54.61820 | -5.87141 | 20 ft | 15 kts | 309° |
| 2026-04-15 20:47 | 54.61920 | -5.87119 | 20 ft | 18 kts | 34° |
| 2026-04-15 20:47 | 54.62045 | -5.86974 | 20 ft | 24 kts | 34° |
| 2026-04-15 20:48 | 54.62199 | -5.86787 | 24 ft | 29 kts | 36° |
| 2026-04-15 20:48 | 54.62375 | -5.86573 | 22 ft | 33 kts | 34° |
| 2026-04-15 20:48 | 54.62466 | -5.86543 | 21 ft | 2 kts | 0° |
| 2026-04-15 20:48 | 54.62478 | -5.86522 | 23 ft | 6 kts | 47° |
| 2026-04-15 20:49 | 54.62476 | -5.86476 | 23 ft | 3 kts | 145° |
| 2026-04-15 20:49 | 54.62457 | -5.86476 | 23 ft | 3 kts | 220° |
| 2026-04-15 20:49 | 54.62428 | -5.86515 | 23 ft | 8 kts | 216° |
| 2026-04-15 20:49 | 54.62235 | -5.86745 | 22 ft | 79 kts | 214° |
| 2026-04-15 20:50 | 54.61566 | -5.87532 | 101 ft | 129 kts | 210° |
| 2026-04-15 20:50 | 54.60887 | -5.88353 | 298 ft | 131 kts | 212° |
| 2026-04-15 20:50 | 54.60015 | -5.89360 | 899 ft | 169 kts | 209° |
| 2026-04-15 20:50 | 54.58922 | -5.90506 | 1670 ft | 202 kts | 209° |
| 2026-04-15 20:51 | 54.57572 | -5.91314 | 2419 ft | 209 kts | 192° |
| 2026-04-15 20:51 | 54.56123 | -5.91696 | 2582 ft | 212 kts | 185° |
| 2026-04-15 20:51 | 54.54684 | -5.90948 | 2956 ft | 227 kts | 157° |
| 2026-04-15 20:51 | 54.53352 | -5.89252 | 3558 ft | 249 kts | 148° |
| 2026-04-15 20:52 | 54.52027 | -5.87266 | 4290 ft | 256 kts | 147° |
| 2026-04-15 20:52 | 54.50651 | -5.85294 | 5014 ft | 259 kts | 149° |
| 2026-04-15 20:52 | 54.49215 | -5.83402 | 5747 ft | 261 kts | 150° |
| 2026-04-15 20:52 | 54.47734 | -5.81559 | 6464 ft | 264 kts | 152° |
| 2026-04-15 20:53 | 54.46223 | -5.79730 | 7170 ft | 267 kts | 152° |
| 2026-04-15 20:53 | 54.44697 | -5.77903 | 7898 ft | 269 kts | 152° |
| 2026-04-15 20:53 | 54.43151 | -5.76056 | 8642 ft | 272 kts | 152° |
| 2026-04-15 20:53 | 54.41590 | -5.74191 | 9394 ft | 275 kts | 152° |
| 2026-04-15 20:54 | 54.40010 | -5.72303 | 10119 ft | 277 kts | 152° |
| 2026-04-15 20:54 | 54.38420 | -5.70401 | 10823 ft | 280 kts | 152° |
| 2026-04-15 20:54 | 54.36823 | -5.68490 | 11544 ft | 281 kts | 152° |
| 2026-04-15 20:54 | 54.35205 | -5.66556 | 12274 ft | 285 kts | 152° |
| 2026-04-15 20:55 | 54.33589 | -5.64628 | 13014 ft | 288 kts | 152° |
| 2026-04-15 20:55 | 54.31938 | -5.62662 | 13755 ft | 291 kts | 152° |
| 2026-04-15 20:55 | 54.30271 | -5.60677 | 14476 ft | 293 kts | 152° |
| 2026-04-15 20:55 | 54.28586 | -5.58666 | 15177 ft | 296 kts | 150° |
| 2026-04-15 20:56 | 54.27006 | -5.56332 | 15902 ft | 306 kts | 141° |
| 2026-04-15 20:56 | 54.25622 | -5.53473 | 16658 ft | 319 kts | 132° |
| 2026-04-15 20:56 | 54.24296 | -5.50296 | 17433 ft | 336 kts | 132° |
| 2026-04-15 20:56 | 54.22897 | -5.46963 | 18199 ft | 351 kts | 132° |
| 2026-04-15 20:57 | 54.21443 | -5.43508 | 18905 ft | 364 kts | 132° |
| 2026-04-15 20:57 | 54.19932 | -5.39928 | 19616 ft | 376 kts | 131° |
| 2026-04-15 20:57 | 54.18401 | -5.36306 | 20333 ft | 384 kts | 131° |
| 2026-04-15 20:57 | 54.16827 | -5.32584 | 21077 ft | 389 kts | 131° |
| 2026-04-15 20:58 | 54.15227 | -5.28810 | 21804 ft | 394 kts | 132° |
| 2026-04-15 20:58 | 54.13607 | -5.24997 | 22583 ft | 399 kts | 132° |
| 2026-04-15 20:58 | 54.11962 | -5.21121 | 23351 ft | 407 kts | 134° |
| 2026-04-15 20:58 | 54.10265 | -5.17145 | 23587 ft | 423 kts | 134° |
| 2026-04-15 20:59 | 54.08525 | -5.13074 | 23687 ft | 425 kts | 134° |
| 2026-04-15 20:59 | 54.06784 | -5.08997 | 23787 ft | 426 kts | 134° |
| 2026-04-15 20:59 | 54.05040 | -5.04921 | 23898 ft | 426 kts | 134° |
| 2026-04-15 20:59 | 54.03305 | -5.00878 | 24006 ft | 427 kts | 134° |
| 2026-04-15 21:00 | 54.01548 | -4.96791 | 24083 ft | 428 kts | 134° |
| 2026-04-15 21:00 | 53.99787 | -4.92704 | 24088 ft | 428 kts | 134° |
| 2026-04-15 21:00 | 53.98019 | -4.88610 | 24090 ft | 428 kts | 134° |
| 2026-04-15 21:00 | 53.96254 | -4.84529 | 24089 ft | 428 kts | 134° |
| 2026-04-15 21:01 | 53.94483 | -4.80448 | 24087 ft | 428 kts | 134° |
| 2026-04-15 21:01 | 53.92715 | -4.76379 | 24087 ft | 428 kts | 134° |
| 2026-04-15 21:01 | 53.90966 | -4.72361 | 24087 ft | 428 kts | 134° |
| 2026-04-15 21:01 | 53.89194 | -4.68293 | 24074 ft | 436 kts | 136° |
| 2026-04-15 21:02 | 53.87359 | -4.64104 | 24086 ft | 444 kts | 136° |
| 2026-04-15 21:02 | 53.85526 | -4.59907 | 24096 ft | 442 kts | 136° |
| 2026-04-15 21:02 | 53.83693 | -4.55713 | 24097 ft | 442 kts | 136° |
| 2026-04-15 21:02 | 53.81862 | -4.51533 | 24099 ft | 442 kts | 136° |
| 2026-04-15 21:03 | 53.80026 | -4.47349 | 24103 ft | 442 kts | 136° |
| 2026-04-15 21:03 | 53.78210 | -4.43135 | 24103 ft | 447 kts | 132° |
| 2026-04-15 21:03 | 53.76718 | -4.38433 | 24107 ft | 455 kts | 125° |
| 2026-04-15 21:03 | 53.75316 | -4.33629 | 24132 ft | 456 kts | 124° |
| 2026-04-15 21:04 | 53.73940 | -4.28882 | 24133 ft | 456 kts | 124° |
| 2026-04-15 21:04 | 53.72539 | -4.24075 | 24133 ft | 456 kts | 124° |
| 2026-04-15 21:04 | 53.71133 | -4.19278 | 24133 ft | 456 kts | 125° |
| 2026-04-15 21:04 | 53.69722 | -4.14491 | 24030 ft | 454 kts | 124° |
| 2026-04-15 21:05 | 53.68321 | -4.09753 | 23767 ft | 451 kts | 125° |
| 2026-04-15 21:05 | 53.66919 | -4.05029 | 23403 ft | 450 kts | 124° |
| 2026-04-15 21:05 | 53.65497 | -4.00267 | 23028 ft | 454 kts | 124° |
| 2026-04-15 21:05 | 53.64091 | -3.95544 | 22669 ft | 448 kts | 124° |
| 2026-04-15 21:06 | 53.62700 | -3.90875 | 22308 ft | 444 kts | 124° |
| 2026-04-15 21:06 | 53.61317 | -3.86247 | 21952 ft | 441 kts | 125° |
| 2026-04-15 21:06 | 53.59940 | -3.81650 | 21605 ft | 438 kts | 125° |
| 2026-04-15 21:06 | 53.58571 | -3.77090 | 21256 ft | 434 kts | 125° |
| 2026-04-15 21:07 | 53.57229 | -3.72624 | 20947 ft | 431 kts | 125° |
| 2026-04-15 21:07 | 53.55877 | -3.68138 | 20651 ft | 428 kts | 125° |
| 2026-04-15 21:07 | 53.54533 | -3.63688 | 20378 ft | 426 kts | 125° |
| 2026-04-15 21:07 | 53.53196 | -3.59267 | 20067 ft | 420 kts | 125° |
| 2026-04-15 21:08 | 53.51883 | -3.54925 | 19786 ft | 414 kts | 125° |
| 2026-04-15 21:08 | 53.50575 | -3.50620 | 19556 ft | 413 kts | 125° |
| 2026-04-15 21:08 | 53.49266 | -3.46323 | 19352 ft | 412 kts | 125° |
| 2026-04-15 21:08 | 53.47961 | -3.42041 | 19107 ft | 409 kts | 125° |
| 2026-04-15 21:09 | 53.46681 | -3.37845 | 18893 ft | 407 kts | 125° |
| 2026-04-15 21:09 | 53.45390 | -3.33622 | 18678 ft | 406 kts | 125° |
| 2026-04-15 21:09 | 53.44108 | -3.29430 | 18467 ft | 398 kts | 125° |
| 2026-04-15 21:09 | 53.42872 | -3.25372 | 18267 ft | 382 kts | 126° |
| 2026-04-15 21:10 | 53.42082 | -3.22782 | 18118 ft | 372 kts | 126° |
| 2026-04-15 21:10 | 53.40921 | -3.18989 | 17835 ft | 359 kts | 126° |
| 2026-04-15 21:10 | 53.40054 | -3.15080 | 17506 ft | 363 kts | 107° |
| 2026-04-15 21:10 | 53.40035 | -3.10838 | 17194 ft | 368 kts | 84° |
| 2026-04-15 21:11 | 53.40892 | -3.06762 | 16870 ft | 376 kts | 63° |
| 2026-04-15 21:11 | 53.42279 | -3.03037 | 16550 ft | 375 kts | 56° |
| 2026-04-15 21:11 | 53.43743 | -2.99471 | 16239 ft | 369 kts | 56° |
| 2026-04-15 21:11 | 53.45164 | -2.95876 | 15903 ft | 369 kts | 58° |
| 2026-04-15 21:12 | 53.46513 | -2.92253 | 15592 ft | 365 kts | 59° |
| 2026-04-15 21:12 | 53.47812 | -2.88609 | 15298 ft | 362 kts | 60° |
| 2026-04-15 21:12 | 53.48962 | -2.84880 | 14994 ft | 357 kts | 73° |
| 2026-04-15 21:12 | 53.49402 | -2.80832 | 14698 ft | 350 kts | 89° |
| 2026-04-15 21:13 | 53.49610 | -2.76783 | 14398 ft | 347 kts | 90° |
| 2026-04-15 21:13 | 53.49811 | -2.72754 | 14106 ft | 344 kts | 90° |
| 2026-04-15 21:13 | 53.50006 | -2.68764 | 13813 ft | 341 kts | 90° |
| 2026-04-15 21:13 | 53.50196 | -2.64804 | 13508 ft | 340 kts | 90° |
| 2026-04-15 21:14 | 53.50380 | -2.60858 | 13183 ft | 338 kts | 90° |
| 2026-04-15 21:14 | 53.50558 | -2.56975 | 12841 ft | 337 kts | 90° |
| 2026-04-15 21:14 | 53.50744 | -2.53046 | 12522 ft | 337 kts | 90° |
| 2026-04-15 21:14 | 53.50926 | -2.49136 | 12203 ft | 334 kts | 90° |
| 2026-04-15 21:15 | 53.51103 | -2.45249 | 11901 ft | 332 kts | 90° |
| 2026-04-15 21:15 | 53.51275 | -2.41386 | 11590 ft | 330 kts | 90° |
| 2026-04-15 21:15 | 53.51442 | -2.37552 | 11284 ft | 328 kts | 90° |
| 2026-04-15 21:15 | 53.51600 | -2.33736 | 10980 ft | 326 kts | 90° |
| 2026-04-15 21:16 | 53.51754 | -2.29944 | 10674 ft | 324 kts | 90° |
| 2026-04-15 21:16 | 53.51901 | -2.26171 | 10325 ft | 322 kts | 90° |
| 2026-04-15 21:16 | 53.52041 | -2.22431 | 9954 ft | 318 kts | 90° |
| 2026-04-15 21:16 | 53.52175 | -2.18723 | 9566 ft | 318 kts | 90° |
| 2026-04-15 21:17 | 53.52309 | -2.15036 | 9162 ft | 314 kts | 90° |
| 2026-04-15 21:17 | 53.52443 | -2.11379 | 8766 ft | 314 kts | 90° |
| 2026-04-15 21:17 | 53.52579 | -2.07721 | 8369 ft | 312 kts | 90° |
| 2026-04-15 21:17 | 53.52715 | -2.04104 | 7964 ft | 308 kts | 90° |
| 2026-04-15 21:18 | 53.52854 | -2.00557 | 7585 ft | 309 kts | 90° |
| 2026-04-15 21:18 | 53.52991 | -1.96967 | 7215 ft | 306 kts | 90° |
| 2026-04-15 21:18 | 53.52807 | -1.93457 | 6838 ft | 297 kts | 113° |
| 2026-04-15 21:18 | 53.51835 | -1.90559 | 6469 ft | 278 kts | 141° |
| 2026-04-15 21:19 | 53.50312 | -1.88811 | 6083 ft | 255 kts | 168° |
| 2026-04-15 21:19 | 53.48660 | -1.88535 | 5698 ft | 227 kts | 197° |
| 2026-04-15 21:19 | 53.47330 | -1.89658 | 5313 ft | 208 kts | 227° |
| 2026-04-15 21:19 | 53.46688 | -1.91731 | 4935 ft | 202 kts | 259° |
| 2026-04-15 21:20 | 53.46751 | -1.94061 | 4629 ft | 196 kts | 270° |
| 2026-04-15 21:20 | 53.46899 | -1.96277 | 4297 ft | 186 kts | 270° |
| 2026-04-15 21:20 | 53.47044 | -1.98391 | 3987 ft | 179 kts | 270° |
| 2026-04-15 21:20 | 53.47187 | -2.00400 | 3664 ft | 172 kts | 270° |
| 2026-04-15 21:21 | 53.47344 | -2.02304 | 3558 ft | 161 kts | 269° |
| 2026-04-15 21:21 | 53.47111 | -2.04034 | 3484 ft | 150 kts | 228° |
| 2026-04-15 21:21 | 53.46307 | -2.05172 | 3424 ft | 151 kts | 221° |
| 2026-04-15 21:21 | 53.45517 | -2.06319 | 3271 ft | 149 kts | 225° |
| 2026-04-15 21:22 | 53.44835 | -2.07562 | 3072 ft | 144 kts | 229° |
| 2026-04-15 21:22 | 53.44200 | -2.08857 | 2869 ft | 143 kts | 230° |
| 2026-04-15 21:22 | 53.43590 | -2.10144 | 2702 ft | 138 kts | 229° |
| 2026-04-15 21:22 | 53.43016 | -2.11439 | 2497 ft | 139 kts | 233° |
| 2026-04-15 21:23 | 53.42503 | -2.12793 | 2297 ft | 140 kts | 233° |
| 2026-04-15 21:23 | 53.41954 | -2.14160 | 2085 ft | 138 kts | 231° |
| 2026-04-15 21:23 | 53.41365 | -2.15451 | 1894 ft | 139 kts | 227° |
| 2026-04-15 21:23 | 53.40703 | -2.16608 | 1695 ft | 138 kts | 222° |
| 2026-04-15 21:24 | 53.40086 | -2.17651 | 1476 ft | 117 kts | 226° |
| 2026-04-15 21:24 | 53.39596 | -2.18701 | 1349 ft | 115 kts | 229° |
| 2026-04-15 21:24 | 53.39112 | -2.19775 | 1163 ft | 117 kts | 228° |
| 2026-04-15 21:24 | 53.38577 | -2.20885 | 1010 ft | 125 kts | 228° |
| 2026-04-15 21:25 | 53.38019 | -2.22013 | 827 ft | 130 kts | 228° |
| 2026-04-15 21:25 | 53.37455 | -2.23160 | 671 ft | 126 kts | 228° |
| 2026-04-15 21:25 | 53.36894 | -2.24334 | 475 ft | 131 kts | 228° |
| 2026-04-15 21:25 | 53.36320 | -2.25519 | 320 ft | 131 kts | 229° |
| 2026-04-15 21:26 | 53.35751 | -2.26707 | 236 ft | 124 kts | 229° |
| 2026-04-15 21:26 | 53.35455 | -2.27326 | 245 ft | 13 kts | 232° |
| 2026-04-15 21:26 | 53.35432 | -2.27375 | 246 ft | 8 kts | 232° |
| 2026-04-15 21:26 | 53.35387 | -2.27469 | 247 ft | 13 kts | 231° |
| 2026-04-15 21:27 | 53.35326 | -2.27600 | 250 ft | 16 kts | 238° |
| 2026-04-15 21:27 | 53.35271 | -2.27789 | 251 ft | 20 kts | 256° |
| 2026-04-15 21:27 | 53.35242 | -2.28040 | 252 ft | 23 kts | 262° |
| 2026-04-15 21:27 | 53.35234 | -2.28125 | 253 ft | 0 kts | 261° |
| 2026-04-15 21:28 | 53.35234 | -2.28127 | 253 ft | 1 kts | 261° |
| 2026-04-15 21:29 | 53.35231 | -2.28175 | 254 ft | 7 kts | 274° |
| 2026-04-15 21:29 | 53.35270 | -2.28213 | 254 ft | 9 kts | 20° |
| 2026-04-15 21:29 | 53.35339 | -2.28112 | 253 ft | 17 kts | 42° |
| 2026-04-15 21:29 | 53.35440 | -2.27936 | 251 ft | 25 kts | 47° |